CheckWX is a tool to help pilots better visualize weather data.  It is not intended as a substitute for an official pre-flight weather briefing.

07:58:03 UTC

KJER TAF
Jerome County Airport
Jerome, Idaho, USA
KJER 270537Z 2706/2806 07010KT P6SM SCT150 FM271800 31006KT P6SM FEW150 FM280200 06010KT P6SM FEW150

Feb-27@
06:00 UTC

Feb-27 @ 06:00 UTC

Feb-27@
18:00 UTC

Feb-27 @ 18:00 UTC

KJER 270537Z 2706/2806 07010KT P6SM SCT150
Wind
  • 070° at 10 KTS
Cloud Levels
  • Scattered at 15,000' AGL

Feb-27@
18:00 UTC

Feb-27 @ 18:00 UTC

Feb-28@
02:00 UTC

Feb-28 @ 02:00 UTC

FM271800 31006KT P6SM FEW150

From

From Standard forecast or significant change

Wind
  • 310° at 6 KTS
Cloud Levels
  • Few at 15,000' AGL

Feb-28@
02:00 UTC

Feb-28 @ 02:00 UTC

Feb-28@
06:00 UTC

Feb-28 @ 06:00 UTC

FM280200 06010KT P6SM FEW150

From

From Standard forecast or significant change

Wind
  • 060° at 10 KTS
Cloud Levels
  • Few at 15,000' AGL